createdAt,value
2019-03-17T00:02:30.311Z,99.90
2019-03-17T00:07:22.581Z,99.90
2019-03-17T00:12:14.741Z,99.90
2019-03-17T00:17:06.955Z,99.90
2019-03-17T00:21:58.530Z,99.90
2019-03-17T00:26:50.618Z,99.90
2019-03-17T00:31:42.177Z,99.90
2019-03-17T00:36:34.815Z,99.90
2019-03-17T00:41:26.285Z,99.90
2019-03-17T00:46:17.554Z,99.90
2019-03-17T00:51:08.612Z,99.90
2019-03-17T00:56:00.207Z,99.90
2019-03-17T01:00:51.710Z,99.90
2019-03-17T01:05:43.894Z,99.90
2019-03-17T01:10:35.420Z,99.90
2019-03-17T01:15:26.560Z,99.90
2019-03-17T01:20:17.807Z,99.90
2019-03-17T01:25:08.833Z,99.90
2019-03-17T01:30:02.093Z,99.90
2019-03-17T01:34:53.561Z,99.90
2019-03-17T01:39:45.835Z,99.90
2019-03-17T01:44:37.879Z,99.90
2019-03-17T01:49:30.166Z,99.90
2019-03-17T01:54:22.024Z,99.90
2019-03-17T01:59:14.180Z,99.90
2019-03-17T02:04:06.280Z,99.90
2019-03-17T02:08:58.322Z,99.90
2019-03-17T02:13:52.502Z,99.90
2019-03-17T02:18:44.103Z,99.90
2019-03-17T02:23:35.744Z,99.90
2019-03-17T02:28:26.671Z,99.90
2019-03-17T02:33:17.927Z,99.90
2019-03-17T02:38:10.548Z,99.90
2019-03-17T02:43:02.692Z,99.90
2019-03-17T02:47:56.650Z,99.90
2019-03-17T02:52:48.771Z,99.90
2019-03-17T02:57:40.719Z,99.90
2019-03-17T03:02:32.939Z,99.90
2019-03-17T03:07:24.973Z,99.80
2019-03-17T03:12:16.783Z,99.40
2019-03-17T03:17:09.183Z,98.00
2019-03-17T03:22:00.752Z,96.90
2019-03-17T03:26:51.847Z,96.80
2019-03-17T03:31:43.682Z,98.10
2019-03-17T03:36:34.334Z,99.30
2019-03-17T03:41:25.375Z,99.90
2019-03-17T03:46:16.436Z,99.90
2019-03-17T03:51:08.331Z,99.90
2019-03-17T03:55:59.482Z,99.90
2019-03-17T04:00:50.635Z,99.90
2019-03-17T04:05:41.371Z,99.90
2019-03-17T04:10:32.117Z,99.90
2019-03-17T04:15:22.969Z,99.90
2019-03-17T04:20:13.628Z,99.90
2019-03-17T04:25:06.705Z,99.90
2019-03-17T04:29:57.405Z,99.90
2019-03-17T04:34:48.316Z,99.90
2019-03-17T04:39:38.881Z,99.90
2019-03-17T04:44:32.511Z,99.90
2019-03-17T04:49:23.698Z,99.90
2019-03-17T04:54:14.411Z,99.90
2019-03-17T04:59:05.254Z,99.90
2019-03-17T05:03:56.427Z,99.90
2019-03-17T05:08:47.363Z,99.90
2019-03-17T05:13:38.340Z,99.90
2019-03-17T05:18:28.680Z,99.90
2019-03-17T05:23:21.702Z,99.90
2019-03-17T05:28:11.834Z,99.90
2019-03-17T05:33:02.306Z,99.90
2019-03-17T05:37:54.236Z,99.90
2019-03-17T05:42:45.528Z,99.90
2019-03-17T05:47:36.230Z,99.90
2019-03-17T05:52:26.993Z,99.90
2019-03-17T05:57:18.001Z,99.90
2019-03-17T06:02:09.060Z,99.90
2019-03-17T06:06:59.966Z,99.90
2019-03-17T06:11:50.754Z,99.90
2019-03-17T06:16:41.485Z,99.90
2019-03-17T06:21:32.812Z,99.90
2019-03-17T06:26:23.574Z,99.90
2019-03-17T06:31:15.251Z,99.90
2019-03-17T06:36:06.329Z,99.90
2019-03-17T06:40:59.387Z,99.90
2019-03-17T06:45:49.568Z,99.90
2019-03-17T06:50:43.394Z,99.90
2019-03-17T06:55:34.085Z,99.90
2019-03-17T07:00:25.913Z,99.90
2019-03-17T07:05:18.332Z,99.90
2019-03-17T07:10:10.603Z,99.90
2019-03-17T07:15:04.474Z,99.90
2019-03-17T07:19:56.307Z,99.90
2019-03-17T07:24:48.707Z,99.90
2019-03-17T07:29:41.660Z,99.90
2019-03-17T07:34:32.996Z,99.90
2019-03-17T07:39:24.847Z,99.90
2019-03-17T07:44:16.582Z,99.90
2019-03-17T07:49:08.471Z,99.90
2019-03-17T07:54:00.481Z,99.90
2019-03-17T07:58:52.232Z,99.90
2019-03-17T08:03:43.940Z,99.90
2019-03-17T08:08:36.355Z,99.90
2019-03-17T08:13:28.540Z,99.90
2019-03-17T08:18:20.259Z,99.90
2019-03-17T08:23:12.291Z,99.90
2019-03-17T08:28:04.355Z,99.90
2019-03-17T08:32:56.189Z,99.90
2019-03-17T08:37:47.837Z,99.90
2019-03-17T08:42:39.894Z,99.90
2019-03-17T08:47:32.214Z,99.90
2019-03-17T08:52:24.156Z,99.90
2019-03-17T08:57:16.296Z,99.90
2019-03-17T09:02:08.111Z,99.90
2019-03-17T09:07:00.942Z,99.90
2019-03-17T09:11:52.964Z,99.90
2019-03-17T09:16:44.186Z,99.90
2019-03-17T09:21:37.108Z,99.90
2019-03-17T09:26:28.671Z,99.90
2019-03-17T09:31:20.611Z,99.90
2019-03-17T09:36:12.783Z,99.90
2019-03-17T09:41:04.863Z,99.90
2019-03-17T09:45:57.034Z,99.90
2019-03-17T09:50:48.947Z,99.90
2019-03-17T09:55:40.829Z,99.90
2019-03-17T10:00:33.045Z,99.90
2019-03-17T10:05:25.189Z,99.90
2019-03-17T10:10:16.894Z,99.90
2019-03-17T10:15:08.182Z,99.90
2019-03-17T10:19:59.549Z,99.90
2019-03-17T10:24:50.172Z,99.90
2019-03-17T10:29:41.130Z,99.90
2019-03-17T10:34:32.104Z,99.90
2019-03-17T10:39:23.422Z,99.90
2019-03-17T10:44:14.749Z,99.90
2019-03-17T10:49:06.367Z,99.90
2019-03-17T10:53:58.347Z,99.90
2019-03-17T10:58:52.299Z,99.90
2019-03-17T11:03:44.360Z,99.90
2019-03-17T11:08:36.363Z,99.90
2019-03-17T11:13:27.798Z,99.90
2019-03-17T11:18:19.385Z,99.90
2019-03-17T11:23:11.926Z,99.90
2019-03-17T11:28:01.613Z,99.90
2019-03-17T11:32:53.268Z,99.90
2019-03-17T11:37:44.563Z,99.90
2019-03-17T11:42:36.048Z,99.90
2019-03-17T11:47:27.307Z,99.90
2019-03-17T11:52:18.656Z,99.90
2019-03-17T11:57:10.111Z,99.90
2019-03-17T12:02:01.649Z,99.90
2019-03-17T12:06:52.660Z,99.90
2019-03-17T12:11:43.611Z,99.90
2019-03-17T12:16:34.319Z,97.80
2019-03-17T12:21:25.530Z,96.20
2019-03-17T12:26:18.644Z,96.80
2019-03-17T12:31:08.188Z,92.00
2019-03-17T12:35:58.582Z,91.70
2019-03-17T12:40:49.299Z,91.80
2019-03-17T12:45:40.113Z,94.20
2019-03-17T12:50:31.894Z,94.20
2019-03-17T12:55:23.281Z,92.80
2019-03-17T13:00:14.754Z,90.20
2019-03-17T13:05:06.474Z,85.30
2019-03-17T13:09:58.086Z,87.30
2019-03-17T13:14:49.051Z,84.40
2019-03-17T13:19:39.418Z,82.20
2019-03-17T13:24:29.488Z,92.80
2019-03-17T13:29:19.578Z,99.00
2019-03-17T13:34:10.260Z,99.90
2019-03-17T13:39:00.415Z,99.90
2019-03-17T13:43:50.994Z,99.90
2019-03-17T13:48:42.298Z,99.90
2019-03-17T13:53:34.012Z,99.90
2019-03-17T13:58:26.639Z,99.90
2019-03-17T14:03:17.260Z,99.90
2019-03-17T14:08:08.068Z,99.90
2019-03-17T14:12:59.828Z,99.90
2019-03-17T14:17:52.089Z,99.90
2019-03-17T14:22:44.008Z,99.90
2019-03-17T14:27:36.838Z,99.90
2019-03-17T14:32:29.321Z,99.90
2019-03-17T14:37:19.788Z,99.10
2019-03-17T14:42:10.974Z,98.20
2019-03-17T14:47:01.425Z,98.20
2019-03-17T14:51:52.204Z,96.80
2019-03-17T14:56:43.245Z,95.40
2019-03-17T15:01:34.362Z,95.50
2019-03-17T15:06:25.362Z,94.40
2019-03-17T15:11:16.555Z,95.40
2019-03-17T15:16:08.325Z,93.20
2019-03-17T15:20:59.980Z,93.10
2019-03-17T15:25:50.901Z,93.50
2019-03-17T15:30:41.514Z,92.80
2019-03-17T15:35:33.279Z,94.40
2019-03-17T15:40:24.144Z,93.70
2019-03-17T15:45:16.897Z,92.70
2019-03-17T15:50:07.179Z,93.60
2019-03-17T15:54:58.318Z,93.60
2019-03-17T15:59:50.474Z,93.00
2019-03-17T16:04:41.549Z,90.60
2019-03-17T16:09:33.176Z,92.00
2019-03-17T16:14:23.544Z,98.30
2019-03-17T16:19:16.342Z,98.70
2019-03-17T16:24:06.870Z,99.90
2019-03-17T16:28:57.348Z,99.90
2019-03-17T16:33:48.611Z,99.90
2019-03-17T16:38:39.944Z,99.90
2019-03-17T16:43:30.757Z,99.90
2019-03-17T16:48:21.729Z,99.90
2019-03-17T16:53:13.141Z,99.90
2019-03-17T16:58:04.366Z,99.90
2019-03-17T17:02:55.426Z,99.90
2019-03-17T17:07:44.321Z,99.90
2019-03-17T17:12:35.079Z,99.90
2019-03-17T17:17:24.873Z,99.90
2019-03-17T17:22:16.275Z,99.90
2019-03-17T17:27:07.129Z,99.80
2019-03-17T17:31:57.972Z,99.90
2019-03-17T17:36:51.007Z,99.90
2019-03-17T17:41:41.038Z,99.90
2019-03-17T17:46:31.909Z,99.90
2019-03-17T17:51:22.993Z,99.90
2019-03-17T17:56:13.674Z,99.90
2019-03-17T18:01:04.427Z,99.60
2019-03-17T18:05:54.814Z,99.40
2019-03-17T18:10:45.797Z,99.90
2019-03-17T18:15:36.658Z,99.90
2019-03-17T18:20:28.816Z,99.90
2019-03-17T18:25:19.721Z,99.90
2019-03-17T18:30:10.622Z,99.90
2019-03-17T18:35:01.685Z,99.90
2019-03-17T18:39:52.629Z,99.90
2019-03-17T18:44:43.655Z,99.90
2019-03-17T18:49:34.198Z,98.70
2019-03-17T18:54:25.360Z,98.30
2019-03-17T18:59:18.843Z,98.60
2019-03-17T19:04:09.137Z,99.40
2019-03-17T19:09:00.135Z,99.50
2019-03-17T19:13:51.173Z,99.70
2019-03-17T19:18:42.080Z,99.70
2019-03-17T19:23:32.563Z,99.90
2019-03-17T19:28:24.092Z,99.90
2019-03-17T19:33:14.497Z,99.90
2019-03-17T19:38:06.034Z,99.90
2019-03-17T19:43:01.180Z,99.90
2019-03-17T19:47:52.734Z,99.90
2019-03-17T19:52:43.006Z,99.90
2019-03-17T19:57:33.378Z,99.90
2019-03-17T20:02:23.787Z,99.90
2019-03-17T20:07:14.363Z,99.90
2019-03-17T20:12:05.259Z,99.90
2019-03-17T20:16:55.975Z,99.90
2019-03-17T20:21:49.000Z,99.90
2019-03-17T20:26:39.249Z,99.90
2019-03-17T20:31:30.489Z,99.90
2019-03-17T20:36:21.144Z,99.90
2019-03-17T20:41:12.042Z,99.90
2019-03-17T20:46:02.693Z,99.90
2019-03-17T20:50:55.530Z,99.90
2019-03-17T20:55:45.969Z,99.90
2019-03-17T21:00:36.872Z,99.90
2019-03-17T21:05:28.050Z,99.90
2019-03-17T21:10:18.990Z,99.90
2019-03-17T21:15:09.585Z,99.90
2019-03-17T21:20:02.453Z,99.90
2019-03-17T21:24:54.687Z,99.90
2019-03-17T21:29:46.328Z,99.90
2019-03-17T21:34:38.147Z,99.90
2019-03-17T21:39:27.691Z,99.90
2019-03-17T21:44:20.489Z,99.90
2019-03-17T21:49:10.651Z,99.90
2019-03-17T21:54:03.681Z,99.90
2019-03-17T21:58:53.958Z,99.90
2019-03-17T22:03:45.096Z,99.90
2019-03-17T22:08:35.785Z,99.90
2019-03-17T22:13:26.229Z,99.90
2019-03-17T22:18:17.651Z,99.90
2019-03-17T22:23:08.407Z,99.90
2019-03-17T22:28:09.446Z,99.90
2019-03-17T22:32:58.046Z,99.90
2019-03-17T22:37:48.618Z,99.90
2019-03-17T22:42:41.475Z,99.90
2019-03-17T22:47:32.862Z,99.90
2019-03-17T22:52:23.623Z,99.90
2019-03-17T22:57:14.167Z,99.90
2019-03-17T23:02:07.589Z,99.90
2019-03-17T23:06:57.726Z,99.90
2019-03-17T23:11:49.446Z,99.90
2019-03-17T23:16:41.251Z,99.90
2019-03-17T23:21:32.963Z,99.90
2019-03-17T23:26:24.851Z,99.90
2019-03-17T23:31:15.182Z,99.90
2019-03-17T23:36:05.236Z,99.90
2019-03-17T23:40:56.202Z,99.90
2019-03-17T23:45:47.160Z,99.90
2019-03-17T23:50:37.874Z,99.90
2019-03-17T23:55:29.668Z,99.90
